createdAt,value
2022-09-29T00:00:59.302Z,11.27
2022-09-29T00:03:27.777Z,11.40
2022-09-29T00:05:57.182Z,10.35
2022-09-29T00:08:28.009Z,10.07
2022-09-29T00:10:56.047Z,10.35
2022-09-29T00:13:24.601Z,9.98
2022-09-29T00:16:01.942Z,10.15
2022-09-29T00:18:31.238Z,9.20
2022-09-29T00:21:01.250Z,9.05
2022-09-29T00:23:30.787Z,9.73
2022-09-29T00:26:07.164Z,9.55
2022-09-29T00:28:36.915Z,9.68
2022-09-29T00:31:08.155Z,10.18
2022-09-29T00:33:37.895Z,9.60
2022-09-29T00:36:09.082Z,10.52
2022-09-29T00:38:37.802Z,9.55
2022-09-29T00:41:06.743Z,9.70
2022-09-29T00:43:51.097Z,9.15
2022-09-29T00:46:24.953Z,8.88
2022-09-29T00:48:54.318Z,9.50
2022-09-29T00:51:22.987Z,9.17
2022-09-29T00:53:51.140Z,9.17
2022-09-29T00:56:21.307Z,8.90
2022-09-29T00:58:55.397Z,8.90
2022-09-29T01:01:26.935Z,9.35
2022-09-29T01:03:59.457Z,8.53
2022-09-29T01:06:31.753Z,9.15
2022-09-29T01:09:02.649Z,8.37
2022-09-29T01:11:31.703Z,9.00
2022-09-29T01:14:03.849Z,8.83
2022-09-29T01:16:34.842Z,8.63
2022-09-29T01:19:08.028Z,8.07
2022-09-29T01:21:51.334Z,8.40
2022-09-29T01:24:55.048Z,8.50
2022-09-29T01:27:41.238Z,7.90
2022-09-29T01:30:22.538Z,8.00
2022-09-29T01:33:07.646Z,7.77
2022-09-29T01:35:44.853Z,7.87
2022-09-29T01:38:23.174Z,7.67
2022-09-29T01:41:01.603Z,7.63
2022-09-29T01:43:37.837Z,8.03
2022-09-29T01:46:10.110Z,7.70
2022-09-29T01:48:43.451Z,8.17
2022-09-29T01:51:15.262Z,7.90
2022-09-29T01:53:48.302Z,7.50
2022-09-29T01:56:22.554Z,7.78
2022-09-29T01:58:56.637Z,8.37
2022-09-29T02:01:30.485Z,7.90
2022-09-29T02:04:04.375Z,7.57
2022-09-29T02:06:37.514Z,8.77
2022-09-29T02:09:10.411Z,10.17
2022-09-29T02:11:40.751Z,10.70
2022-09-29T02:14:15.111Z,11.20
2022-09-29T02:16:47.349Z,11.43
2022-09-29T02:19:19.725Z,10.93
2022-09-29T02:21:48.143Z,11.27
2022-09-29T02:24:16.613Z,17.30
2022-09-29T02:26:45.693Z,16.00
2022-09-29T02:29:14.562Z,11.27
2022-09-29T02:31:42.912Z,11.20
2022-09-29T02:34:14.788Z,11.80
2022-09-29T02:36:54.947Z,16.17
2022-09-29T02:39:35.854Z,9.95
2022-09-29T02:42:14.850Z,11.67
2022-09-29T02:44:56.909Z,9.40
2022-09-29T02:47:39.187Z,9.55
2022-09-29T02:50:28.967Z,12.48
2022-09-29T02:53:07.277Z,13.90
2022-09-29T02:55:41.010Z,12.63
2022-09-29T02:58:15.350Z,13.50
2022-09-29T03:00:44.632Z,9.25
2022-09-29T03:03:12.778Z,11.52
2022-09-29T03:05:41.108Z,10.05
2022-09-29T03:08:10.495Z,12.10
2022-09-29T03:10:39.071Z,11.07
2022-09-29T03:13:07.234Z,10.30
2022-09-29T03:15:35.282Z,13.98
2022-09-29T03:18:09.320Z,12.40
2022-09-29T03:20:38.209Z,13.80
2022-09-29T03:23:06.233Z,15.50
2022-09-29T03:25:35.757Z,16.40
2022-09-29T03:28:03.980Z,13.85
2022-09-29T03:30:32.034Z,15.68
2022-09-29T03:33:00.111Z,11.98
2022-09-29T03:35:28.144Z,13.40
2022-09-29T03:37:59.322Z,10.98
2022-09-29T03:40:27.581Z,13.35
2022-09-29T03:42:56.970Z,16.08
2022-09-29T03:45:25.055Z,10.68
2022-09-29T03:47:53.158Z,18.58
2022-09-29T03:50:21.197Z,13.80
2022-09-29T03:52:49.250Z,10.90
2022-09-29T03:55:17.290Z,17.17
2022-09-29T03:57:45.531Z,12.63
2022-09-29T04:00:16.527Z,21.20
2022-09-29T04:02:44.573Z,18.83
2022-09-29T04:05:12.588Z,11.20
2022-09-29T04:07:40.634Z,16.92
2022-09-29T04:10:09.291Z,16.58
2022-09-29T04:12:37.450Z,13.50
2022-09-29T04:15:06.378Z,16.27
2022-09-29T04:17:35.790Z,15.25
2022-09-29T04:20:03.876Z,12.18
2022-09-29T04:22:31.839Z,10.10
2022-09-29T04:24:59.899Z,16.30
2022-09-29T04:27:27.965Z,15.63
2022-09-29T04:29:55.968Z,16.27
2022-09-29T04:32:24.790Z,13.88
2022-09-29T04:34:54.197Z,15.00
2022-09-29T04:37:22.258Z,13.70
2022-09-29T04:39:50.948Z,15.52
2022-09-29T04:42:18.939Z,11.90
2022-09-29T04:44:47.189Z,10.23
2022-09-29T04:47:15.621Z,12.27
2022-09-29T04:49:43.801Z,13.18
2022-09-29T04:52:15.104Z,11.23
2022-09-29T04:54:43.138Z,11.77
2022-09-29T04:57:11.410Z,10.57
2022-09-29T04:59:39.474Z,10.50
2022-09-29T05:02:07.580Z,10.95
2022-09-29T05:04:35.734Z,9.10
2022-09-29T05:07:04.265Z,9.83
2022-09-29T05:09:34.186Z,11.48
2022-09-29T05:12:03.131Z,8.67
2022-09-29T05:14:31.199Z,8.93
2022-09-29T05:16:59.848Z,8.33
2022-09-29T05:19:27.838Z,8.17
2022-09-29T05:21:55.889Z,10.10
2022-09-29T05:24:23.966Z,9.10
2022-09-29T05:26:58.137Z,9.37
2022-09-29T05:29:27.176Z,7.97
2022-09-29T05:31:55.470Z,10.20
2022-09-29T05:34:23.606Z,9.47
2022-09-29T05:36:51.716Z,9.27
2022-09-29T05:39:21.095Z,9.13
2022-09-29T05:41:50.185Z,9.77
2022-09-29T05:44:19.582Z,9.80
2022-09-29T05:46:48.208Z,11.00
2022-09-29T05:49:17.188Z,10.77
2022-09-29T05:51:45.307Z,12.30
2022-09-29T05:54:13.341Z,13.23
2022-09-29T05:56:45.180Z,14.40
2022-09-29T05:59:13.735Z,14.23
2022-09-29T06:01:43.701Z,14.90
2022-09-29T06:04:12.179Z,14.70
2022-09-29T06:06:40.659Z,13.73
2022-09-29T06:09:09.246Z,12.85
2022-09-29T06:11:37.394Z,12.87
2022-09-29T06:14:05.503Z,12.25
2022-09-29T06:16:34.552Z,13.88
2022-09-29T06:19:05.012Z,13.23
2022-09-29T06:21:34.760Z,12.82
2022-09-29T06:24:03.175Z,13.57
2022-09-29T06:26:31.471Z,13.50
2022-09-29T06:28:59.808Z,11.85
2022-09-29T06:31:29.405Z,12.65
2022-09-29T06:33:58.290Z,13.32
2022-09-29T06:36:48.978Z,12.48
2022-09-29T06:39:17.307Z,12.73
2022-09-29T06:41:52.015Z,12.63
2022-09-29T06:44:20.233Z,15.55
2022-09-29T06:46:48.467Z,13.52
2022-09-29T06:49:16.820Z,11.75
2022-09-29T06:51:46.805Z,13.32
2022-09-29T06:54:16.351Z,11.98
2022-09-29T06:56:47.410Z,10.82
2022-09-29T06:59:15.527Z,12.63
2022-09-29T07:01:43.655Z,12.57
2022-09-29T07:04:13.099Z,14.13
2022-09-29T07:06:41.139Z,13.20
2022-09-29T07:09:16.070Z,14.05
2022-09-29T07:11:46.576Z,13.77
2022-09-29T07:14:14.868Z,13.60
2022-09-29T07:16:43.623Z,15.02
2022-09-29T07:19:11.987Z,14.70
2022-09-29T07:21:39.959Z,13.93
2022-09-29T07:24:09.067Z,14.13
2022-09-29T07:26:38.596Z,14.43
2022-09-29T07:29:09.238Z,13.88
2022-09-29T07:31:49.846Z,13.93
2022-09-29T07:34:19.508Z,14.68
2022-09-29T07:36:47.518Z,13.98
2022-09-29T07:39:15.668Z,14.10
2022-09-29T07:41:45.029Z,13.45
2022-09-29T07:44:13.173Z,14.18
2022-09-29T07:46:41.293Z,14.55
2022-09-29T07:49:09.457Z,13.25
2022-09-29T07:51:37.494Z,13.45
2022-09-29T07:54:06.273Z,14.52
2022-09-29T07:56:35.406Z,13.35
2022-09-29T07:59:05.468Z,14.80
2022-09-29T08:01:34.282Z,12.98
2022-09-29T08:04:03.161Z,13.75
2022-09-29T08:06:31.684Z,13.85
2022-09-29T08:09:05.154Z,12.50
2022-09-29T08:11:35.216Z,14.00
2022-09-29T08:14:04.706Z,14.23
2022-09-29T08:16:33.117Z,13.98
2022-09-29T08:19:01.876Z,14.30
2022-09-29T08:21:30.136Z,13.88
2022-09-29T08:23:58.143Z,13.93
2022-09-29T08:26:40.479Z,14.55
2022-09-29T08:29:15.919Z,13.35
2022-09-29T08:31:44.891Z,13.48
2022-09-29T08:34:13.619Z,14.10
2022-09-29T08:36:42.241Z,13.43
2022-09-29T08:39:11.651Z,11.93
2022-09-29T08:41:54.582Z,11.20
2022-09-29T08:44:38.456Z,11.40
2022-09-29T08:47:18.886Z,11.07
2022-09-29T08:49:51.092Z,10.45
2022-09-29T08:52:22.970Z,9.98
2022-09-29T08:54:55.946Z,10.32
2022-09-29T08:57:24.376Z,9.93
2022-09-29T08:59:56.986Z,9.93
2022-09-29T09:02:57.575Z,9.02
2022-09-29T09:06:01.253Z,10.45
2022-09-29T09:08:45.070Z,10.23
2022-09-29T09:11:30.416Z,9.98
2022-09-29T09:14:15.010Z,9.52
2022-09-29T09:16:54.880Z,10.18
2022-09-29T09:19:43.206Z,10.48
2022-09-29T09:22:22.138Z,10.02
2022-09-29T09:24:56.843Z,9.50
2022-09-29T09:27:28.077Z,8.95
2022-09-29T09:30:05.723Z,8.50
2022-09-29T09:32:43.358Z,7.15
2022-09-29T09:35:25.937Z,9.02
2022-09-29T09:37:56.589Z,8.02
2022-09-29T09:40:27.890Z,8.82
2022-09-29T09:43:04.019Z,9.27
2022-09-29T09:45:37.485Z,8.63
2022-09-29T09:48:12.066Z,9.18
2022-09-29T09:50:43.023Z,9.35
2022-09-29T09:53:16.502Z,9.10
2022-09-29T09:55:44.685Z,9.43
2022-09-29T09:58:58.466Z,9.25
2022-09-29T10:01:27.147Z,8.27
2022-09-29T10:03:58.876Z,8.45
2022-09-29T10:06:26.926Z,8.88
2022-09-29T10:08:54.944Z,8.45
2022-09-29T10:11:25.587Z,8.27
2022-09-29T10:14:04.662Z,8.73
2022-09-29T10:16:41.570Z,8.25
2022-09-29T10:19:11.560Z,7.65
2022-09-29T10:21:41.381Z,7.65
2022-09-29T10:24:23.838Z,7.65
2022-09-29T10:26:55.248Z,7.50
2022-09-29T10:29:31.129Z,7.45
2022-09-29T10:32:02.401Z,7.25
2022-09-29T10:34:33.254Z,6.50
2022-09-29T10:37:04.964Z,5.53
2022-09-29T10:39:44.217Z,6.43
2022-09-29T10:42:22.754Z,5.93
2022-09-29T10:44:55.549Z,5.72
2022-09-29T10:47:24.584Z,5.68
2022-09-29T10:50:18.132Z,5.03
2022-09-29T10:52:51.997Z,5.53
2022-09-29T10:55:22.817Z,5.30
2022-09-29T10:57:51.606Z,4.97
2022-09-29T11:00:32.647Z,5.68
2022-09-29T11:03:07.379Z,5.45
2022-09-29T11:05:37.531Z,4.50
2022-09-29T11:08:05.842Z,4.95
2022-09-29T11:10:36.025Z,4.97
2022-09-29T11:13:40.562Z,4.82
2022-09-29T11:16:16.693Z,4.40
2022-09-29T11:18:58.294Z,4.47
2022-09-29T11:22:10.973Z,5.05
2022-09-29T11:25:05.470Z,5.28
2022-09-29T11:27:44.688Z,4.85
2022-09-29T11:30:17.793Z,5.18
2022-09-29T11:33:01.387Z,4.70
2022-09-29T11:35:40.401Z,4.93
2022-09-29T11:38:21.819Z,4.95
2022-09-29T11:41:03.587Z,4.88
2022-09-29T11:43:45.166Z,4.88
2022-09-29T11:46:31.317Z,4.78
2022-09-29T11:49:46.886Z,5.13
2022-09-29T11:52:32.822Z,5.45
2022-09-29T11:55:17.638Z,5.00
2022-09-29T11:58:02.932Z,4.82
2022-09-29T12:00:48.243Z,5.30
2022-09-29T12:03:35.475Z,4.90
2022-09-29T12:06:23.017Z,3.97
2022-09-29T12:09:04.162Z,4.68
2022-09-29T12:11:54.943Z,4.65
2022-09-29T12:14:41.329Z,4.30
2022-09-29T12:17:13.753Z,3.85
2022-09-29T12:19:45.010Z,3.83
2022-09-29T12:22:19.314Z,2.95
2022-09-29T12:24:51.682Z,2.90
2022-09-29T12:27:24.150Z,3.08
2022-09-29T12:29:57.802Z,2.75
2022-09-29T12:32:30.426Z,2.90
2022-09-29T12:35:02.279Z,2.92
2022-09-29T12:37:37.025Z,2.47
2022-09-29T12:40:11.887Z,2.72
2022-09-29T12:42:48.957Z,2.80
2022-09-29T12:45:26.067Z,2.67
2022-09-29T12:48:02.814Z,2.97
2022-09-29T12:50:35.717Z,2.45
2022-09-29T12:53:11.218Z,2.33
2022-09-29T12:55:47.719Z,1.70
2022-09-29T12:58:24.037Z,1.75
2022-09-29T13:01:00.190Z,1.73
2022-09-29T13:03:50.356Z,1.67
2022-09-29T13:06:52.091Z,2.05
2022-09-29T13:09:38.052Z,1.85
2022-09-29T13:12:24.338Z,1.90
2022-09-29T13:15:14.254Z,2.00
2022-09-29T13:17:57.603Z,1.90
2022-09-29T13:20:52.110Z,1.98
2022-09-29T13:23:42.126Z,2.30
2022-09-29T13:26:20.992Z,2.20
2022-09-29T13:28:52.254Z,1.80
2022-09-29T13:31:28.960Z,1.60
2022-09-29T13:34:03.086Z,2.10
2022-09-29T13:36:35.994Z,1.90
2022-09-29T13:39:06.456Z,2.10
2022-09-29T13:41:39.014Z,2.38
2022-09-29T13:44:25.320Z,2.30
2022-09-29T13:46:56.109Z,2.13
2022-09-29T13:49:32.098Z,2.00
2022-09-29T13:52:03.582Z,1.90
2022-09-29T13:54:34.317Z,1.40
2022-09-29T13:57:27.115Z,1.20
2022-09-29T14:00:32.897Z,0.70
2022-09-29T14:03:26.336Z,0.98
2022-09-29T14:05:58.262Z,0.57
2022-09-29T14:08:32.579Z,0.80
2022-09-29T14:11:12.261Z,0.80
2022-09-29T14:13:45.777Z,0.90
2022-09-29T14:16:31.866Z,0.90
2022-09-29T14:19:06.214Z,0.90
2022-09-29T14:21:51.529Z,1.25
2022-09-29T14:24:50.553Z,1.33
2022-09-29T14:27:31.845Z,1.40
2022-09-29T14:30:15.702Z,1.15
2022-09-29T14:32:49.943Z,1.38
2022-09-29T14:35:24.379Z,1.42
2022-09-29T14:38:04.101Z,1.42
2022-09-29T14:40:32.970Z,1.48
2022-09-29T14:43:13.767Z,1.40
2022-09-29T14:46:34.187Z,1.30
2022-09-29T14:49:43.359Z,1.52
2022-09-29T14:52:21.138Z,1.77
2022-09-29T14:55:02.818Z,1.45
2022-09-29T14:57:46.680Z,1.73
2022-09-29T15:00:18.045Z,1.52
2022-09-29T15:02:55.435Z,1.50
2022-09-29T15:05:31.259Z,1.58
2022-09-29T15:08:00.591Z,1.50
2022-09-29T15:10:33.713Z,1.55
2022-09-29T15:13:20.147Z,1.42
2022-09-29T15:15:49.487Z,1.30
2022-09-29T15:18:30.681Z,1.35
2022-09-29T15:21:05.374Z,1.17
2022-09-29T15:24:03.157Z,1.50
2022-09-29T15:26:34.607Z,1.08
2022-09-29T15:29:07.513Z,1.02
2022-09-29T15:31:35.922Z,1.10
2022-09-29T15:34:05.326Z,0.85
2022-09-29T15:36:37.403Z,0.82
2022-09-29T15:39:07.944Z,0.82
2022-09-29T15:41:37.358Z,0.88
2022-09-29T15:44:18.157Z,0.80
2022-09-29T15:46:50.376Z,0.70
2022-09-29T15:49:21.371Z,0.60
2022-09-29T15:51:58.634Z,0.70
2022-09-29T15:54:29.793Z,0.95
2022-09-29T15:57:16.876Z,1.00
2022-09-29T15:59:51.429Z,1.10
2022-09-29T16:02:30.423Z,1.20
2022-09-29T16:05:01.915Z,1.20
2022-09-29T16:07:32.734Z,1.15
2022-09-29T16:10:09.635Z,1.20
2022-09-29T16:12:47.569Z,1.70
2022-09-29T16:15:22.512Z,2.15
2022-09-29T16:17:51.484Z,1.60
2022-09-29T16:20:26.920Z,1.20
2022-09-29T16:22:55.828Z,1.40
2022-09-29T16:25:27.146Z,1.27
2022-09-29T16:27:58.441Z,1.45
2022-09-29T16:30:29.463Z,1.40
2022-09-29T16:33:13.450Z,1.40
2022-09-29T16:35:50.933Z,1.52
2022-09-29T16:38:39.887Z,1.83
2022-09-29T16:41:27.816Z,1.90
2022-09-29T16:44:07.243Z,3.38
2022-09-29T16:46:42.395Z,3.05
2022-09-29T16:49:16.274Z,2.13
2022-09-29T16:51:46.742Z,1.48
2022-09-29T16:54:20.486Z,1.08
2022-09-29T16:56:50.796Z,1.10
2022-09-29T16:59:21.027Z,0.98
2022-09-29T17:01:49.331Z,1.10
2022-09-29T17:04:17.522Z,1.13
2022-09-29T17:06:48.612Z,1.10
2022-09-29T17:09:21.538Z,1.20
2022-09-29T17:11:49.913Z,1.10
2022-09-29T17:14:21.690Z,1.25
2022-09-29T17:16:51.848Z,1.45
2022-09-29T17:19:20.533Z,1.60
2022-09-29T17:21:48.738Z,1.40
2022-09-29T17:24:16.865Z,1.60
2022-09-29T17:27:04.212Z,1.17
2022-09-29T17:29:32.480Z,1.40
2022-09-29T17:32:02.856Z,1.33
2022-09-29T17:34:30.899Z,1.40
2022-09-29T17:37:01.996Z,1.67
2022-09-29T17:39:30.526Z,1.38
2022-09-29T17:41:59.184Z,1.50
2022-09-29T17:44:28.005Z,1.50
2022-09-29T17:47:05.542Z,1.40
2022-09-29T17:49:49.961Z,1.20
2022-09-29T17:52:19.846Z,1.50
2022-09-29T17:54:48.337Z,2.00
2022-09-29T17:57:26.383Z,1.58
2022-09-29T17:59:54.504Z,3.45
2022-09-29T18:02:24.192Z,2.50
2022-09-29T18:04:54.270Z,1.80
2022-09-29T18:07:22.323Z,2.17
2022-09-29T18:09:50.334Z,2.50
2022-09-29T18:12:18.375Z,2.72
2022-09-29T18:14:46.356Z,1.65
2022-09-29T18:17:14.472Z,1.45
2022-09-29T18:19:42.480Z,1.23
2022-09-29T18:22:11.974Z,1.60
2022-09-29T18:24:40.042Z,1.42
2022-09-29T18:27:12.982Z,1.40
2022-09-29T18:29:40.971Z,1.90
2022-09-29T18:32:14.182Z,2.13
2022-09-29T18:34:42.615Z,3.38
2022-09-29T18:37:12.000Z,3.20
2022-09-29T18:39:40.228Z,3.67
2022-09-29T18:42:08.274Z,2.88
2022-09-29T18:44:37.403Z,4.65
2022-09-29T18:47:05.418Z,3.80
2022-09-29T18:49:33.410Z,3.72
2022-09-29T18:52:01.456Z,3.92
2022-09-29T18:54:30.886Z,3.47
2022-09-29T18:56:58.925Z,3.33
2022-09-29T18:59:26.927Z,3.50
2022-09-29T19:01:55.126Z,3.55
2022-09-29T19:04:24.234Z,2.88
2022-09-29T19:06:52.250Z,2.50
2022-09-29T19:09:20.394Z,2.50
2022-09-29T19:11:50.462Z,3.00
2022-09-29T19:14:20.884Z,2.78
2022-09-29T19:16:48.911Z,2.67
2022-09-29T19:19:17.777Z,2.45
2022-09-29T19:21:45.836Z,2.60
2022-09-29T19:24:13.987Z,2.90
2022-09-29T19:26:42.198Z,3.10
2022-09-29T19:29:11.609Z,2.92
2022-09-29T19:31:39.739Z,3.92
2022-09-29T19:34:07.955Z,3.67
2022-09-29T19:36:39.249Z,3.83
2022-09-29T19:39:12.061Z,3.67
2022-09-29T19:41:45.207Z,4.25
2022-09-29T19:44:14.611Z,4.15
2022-09-29T19:46:42.709Z,3.90
2022-09-29T19:49:11.122Z,4.40
2022-09-29T19:51:50.080Z,4.50
2022-09-29T19:54:19.522Z,4.70
2022-09-29T19:56:49.590Z,4.60
2022-09-29T19:59:21.220Z,4.50
2022-09-29T20:01:49.826Z,4.45
2022-09-29T20:04:21.914Z,4.65
2022-09-29T20:06:54.971Z,4.45
2022-09-29T20:09:23.186Z,4.70
2022-09-29T20:11:54.657Z,4.50
2022-09-29T20:14:28.114Z,4.85
2022-09-29T20:16:58.910Z,4.85
2022-09-29T20:19:31.201Z,4.80
2022-09-29T20:21:59.576Z,4.60
2022-09-29T20:24:27.658Z,4.45
2022-09-29T20:26:58.825Z,4.80
2022-09-29T20:29:29.353Z,5.00
2022-09-29T20:31:57.717Z,5.00
2022-09-29T20:34:26.064Z,5.30
2022-09-29T20:36:55.219Z,5.15
2022-09-29T20:39:25.272Z,4.93
2022-09-29T20:41:58.210Z,5.07
2022-09-29T20:44:27.103Z,5.13
2022-09-29T20:46:57.729Z,5.40
2022-09-29T20:49:26.940Z,5.45
2022-09-29T20:52:26.271Z,5.07
2022-09-29T20:55:03.285Z,5.93
2022-09-29T20:57:46.133Z,4.97
2022-09-29T21:00:18.846Z,5.30
2022-09-29T21:03:09.080Z,4.93
2022-09-29T21:05:41.594Z,5.20
2022-09-29T21:08:14.977Z,5.30
2022-09-29T21:10:50.862Z,5.15
2022-09-29T21:13:26.592Z,4.82
2022-09-29T21:16:02.529Z,4.70
2022-09-29T21:18:39.588Z,5.40
2022-09-29T21:21:11.377Z,4.72
2022-09-29T21:23:47.364Z,4.63
2022-09-29T21:26:24.884Z,4.55
2022-09-29T21:28:59.455Z,4.18
2022-09-29T21:31:38.049Z,4.55
2022-09-29T21:34:10.137Z,4.10
2022-09-29T21:36:40.357Z,4.28
2022-09-29T21:39:17.492Z,4.47
2022-09-29T21:41:56.087Z,4.13
2022-09-29T21:44:31.041Z,3.88
2022-09-29T21:47:04.438Z,3.70
2022-09-29T21:49:37.727Z,4.05
2022-09-29T21:52:11.071Z,3.97
2022-09-29T21:54:41.118Z,4.20
2022-09-29T21:57:32.197Z,4.38
2022-09-29T22:00:02.090Z,3.90
2022-09-29T22:02:30.446Z,4.63
2022-09-29T22:04:59.928Z,4.40
2022-09-29T22:07:27.944Z,4.00
2022-09-29T22:09:55.938Z,4.40
2022-09-29T22:12:26.065Z,4.03
2022-09-29T22:14:54.080Z,3.88
2022-09-29T22:17:22.199Z,5.15
2022-09-29T22:19:50.195Z,4.93
2022-09-29T22:22:19.606Z,5.20
2022-09-29T22:24:47.624Z,5.18
2022-09-29T22:27:16.062Z,5.10
2022-09-29T22:29:44.065Z,5.93
2022-09-29T22:32:12.101Z,6.25
2022-09-29T22:34:40.092Z,6.75
2022-09-29T22:37:08.077Z,5.63
2022-09-29T22:39:37.558Z,6.03
2022-09-29T22:42:05.575Z,6.25
2022-09-29T22:44:33.605Z,5.35
2022-09-29T22:47:03.166Z,6.25
2022-09-29T22:49:31.232Z,6.60
2022-09-29T22:51:59.234Z,6.38
2022-09-29T22:54:27.234Z,6.15
2022-09-29T22:56:56.613Z,6.10
2022-09-29T22:59:24.733Z,6.40
2022-09-29T23:01:52.922Z,5.95
2022-09-29T23:04:21.062Z,5.70
2022-09-29T23:06:49.177Z,5.93
2022-09-29T23:09:17.221Z,5.28
2022-09-29T23:11:45.314Z,5.00
2022-09-29T23:14:15.086Z,5.40
2022-09-29T23:16:43.142Z,5.03
2022-09-29T23:19:12.414Z,5.82
2022-09-29T23:21:40.455Z,5.78
2022-09-29T23:24:08.558Z,5.57
2022-09-29T23:26:36.587Z,5.65
2022-09-29T23:29:07.675Z,5.43
2022-09-29T23:31:37.128Z,6.30
2022-09-29T23:34:05.313Z,6.22
2022-09-29T23:36:33.413Z,5.75
2022-09-29T23:39:14.384Z,5.95
2022-09-29T23:41:44.524Z,5.78
2022-09-29T23:44:13.514Z,5.70
2022-09-29T23:46:43.976Z,5.93
2022-09-29T23:49:13.688Z,5.82
2022-09-29T23:51:44.032Z,5.93
2022-09-29T23:54:13.839Z,6.97
2022-09-29T23:56:41.918Z,6.57
2022-09-29T23:59:10.043Z,6.03
